createdAt,value
2023-02-08T00:00:50.946Z,58.60
2023-02-08T00:03:18.436Z,58.78
2023-02-08T00:05:45.637Z,58.44
2023-02-08T00:08:12.739Z,58.99
2023-02-08T00:10:39.986Z,58.90
2023-02-08T00:13:07.235Z,58.72
2023-02-08T00:15:34.230Z,58.72
2023-02-08T00:18:01.284Z,58.60
2023-02-08T00:20:29.371Z,58.47
2023-02-08T00:22:56.701Z,58.38
2023-02-08T00:25:23.698Z,58.52
2023-02-08T00:27:50.788Z,58.39
2023-02-08T00:30:17.883Z,58.48
2023-02-08T00:32:44.908Z,58.52
2023-02-08T00:35:12.253Z,58.32
2023-02-08T00:37:39.362Z,58.49
2023-02-08T00:40:06.791Z,58.73
2023-02-08T00:42:33.833Z,58.88
2023-02-08T00:45:00.886Z,58.79
2023-02-08T00:47:27.953Z,58.48
2023-02-08T00:49:55.018Z,58.40
2023-02-08T00:52:22.264Z,58.89
2023-02-08T00:54:49.254Z,58.83
2023-02-08T00:57:16.287Z,58.50
2023-02-08T00:59:43.313Z,58.49
2023-02-08T01:02:10.734Z,58.56
2023-02-08T01:04:38.241Z,58.73
2023-02-08T01:07:07.035Z,58.51
2023-02-08T01:09:34.477Z,58.52
2023-02-08T01:12:01.733Z,58.39
2023-02-08T01:14:28.780Z,58.32
2023-02-08T01:16:56.060Z,58.22
2023-02-08T01:19:23.823Z,58.29
2023-02-08T01:21:50.892Z,58.62
2023-02-08T01:24:18.340Z,58.60
2023-02-08T01:26:45.459Z,58.66
2023-02-08T01:29:12.608Z,58.36
2023-02-08T01:31:42.223Z,58.67
2023-02-08T01:34:10.823Z,58.74
2023-02-08T01:36:38.779Z,59.13
2023-02-08T01:39:10.418Z,58.95
2023-02-08T01:41:40.998Z,58.22
2023-02-08T01:44:14.003Z,58.86
2023-02-08T01:46:46.038Z,59.07
2023-02-08T01:49:20.299Z,58.73
2023-02-08T01:52:10.375Z,58.84
2023-02-08T01:54:43.816Z,58.60
2023-02-08T01:57:11.265Z,58.33
2023-02-08T01:59:47.596Z,58.47
2023-02-08T02:02:17.775Z,58.68
2023-02-08T02:04:45.587Z,58.88
2023-02-08T02:07:13.787Z,58.62
2023-02-08T02:09:44.908Z,58.59
2023-02-08T02:12:14.161Z,58.79
2023-02-08T02:14:42.796Z,58.40
2023-02-08T02:17:12.065Z,58.68
2023-02-08T02:20:02.995Z,58.50
2023-02-08T02:22:55.344Z,58.48
2023-02-08T02:26:03.701Z,58.47
2023-02-08T02:28:38.144Z,58.38
2023-02-08T02:31:36.923Z,58.59
2023-02-08T02:34:08.657Z,58.40
2023-02-08T02:36:38.274Z,58.46
2023-02-08T02:39:36.118Z,58.72
2023-02-08T02:43:08.771Z,58.42
2023-02-08T02:45:45.566Z,58.28
2023-02-08T02:48:32.072Z,58.69
2023-02-08T02:51:46.475Z,58.72
2023-02-08T02:54:19.399Z,58.31
2023-02-08T02:56:51.113Z,58.81
2023-02-08T02:59:19.963Z,58.67
2023-02-08T03:01:47.821Z,58.71
2023-02-08T03:04:33.006Z,58.53
2023-02-08T03:07:18.219Z,58.86
2023-02-08T03:10:03.690Z,58.87
2023-02-08T03:12:42.171Z,58.90
2023-02-08T03:15:27.548Z,58.87
2023-02-08T03:18:39.103Z,58.77
2023-02-08T03:21:18.957Z,58.69
2023-02-08T03:24:04.336Z,58.58
2023-02-08T03:26:59.392Z,58.49
2023-02-08T03:29:26.447Z,58.54
2023-02-08T03:32:19.201Z,58.74
2023-02-08T03:34:58.275Z,58.53
2023-02-08T03:37:31.134Z,58.35
2023-02-08T03:40:23.244Z,58.45
2023-02-08T03:42:53.199Z,58.45
2023-02-08T03:45:24.166Z,58.64
2023-02-08T03:47:55.017Z,58.87
2023-02-08T03:50:23.807Z,58.93
2023-02-08T03:52:52.455Z,58.69
2023-02-08T03:55:24.970Z,58.60
2023-02-08T03:58:18.336Z,59.15
2023-02-08T04:00:55.226Z,59.00
2023-02-08T04:03:28.745Z,58.88
2023-02-08T04:05:55.988Z,58.56
2023-02-08T04:08:23.206Z,59.03
2023-02-08T04:10:50.339Z,58.84
2023-02-08T04:13:17.426Z,59.02
2023-02-08T04:15:44.980Z,58.81
2023-02-08T04:18:12.041Z,58.84
2023-02-08T04:20:39.532Z,58.78
2023-02-08T04:23:06.696Z,59.43
2023-02-08T04:25:33.715Z,59.32
2023-02-08T04:28:00.974Z,58.55
2023-02-08T04:30:28.031Z,59.16
2023-02-08T04:32:55.143Z,58.51
2023-02-08T04:35:22.166Z,58.61
2023-02-08T04:37:49.215Z,58.91
2023-02-08T04:40:16.414Z,58.62
2023-02-08T04:42:43.492Z,59.43
2023-02-08T04:45:10.587Z,59.01
2023-02-08T04:47:37.596Z,59.14
2023-02-08T04:50:05.013Z,58.85
2023-02-08T04:52:32.512Z,59.11
2023-02-08T04:54:59.626Z,58.98
2023-02-08T04:57:29.101Z,59.23
2023-02-08T04:59:56.123Z,58.80
2023-02-08T05:02:23.244Z,59.32
2023-02-08T05:04:50.280Z,59.66
2023-02-08T05:07:17.336Z,58.87
2023-02-08T05:09:44.363Z,59.04
2023-02-08T05:12:11.879Z,59.17
2023-02-08T05:14:38.891Z,59.13
2023-02-08T05:17:05.952Z,59.91
2023-02-08T05:19:32.971Z,59.50
2023-02-08T05:21:59.934Z,59.66
2023-02-08T05:24:26.921Z,59.67
2023-02-08T05:26:53.985Z,59.22
2023-02-08T05:29:21.114Z,59.74
2023-02-08T05:31:48.222Z,59.86
2023-02-08T05:34:15.348Z,59.42
2023-02-08T05:36:42.355Z,58.95
2023-02-08T05:39:09.364Z,59.71
2023-02-08T05:41:36.450Z,60.10
2023-02-08T05:44:03.462Z,59.74
2023-02-08T05:46:30.613Z,59.81
2023-02-08T05:48:57.900Z,59.96
2023-02-08T05:51:24.897Z,59.95
2023-02-08T05:53:51.968Z,59.80
2023-02-08T05:56:18.963Z,60.08
2023-02-08T05:58:45.935Z,59.88
2023-02-08T06:01:13.952Z,59.72
2023-02-08T06:03:41.390Z,60.05
2023-02-08T06:06:11.391Z,59.97
2023-02-08T06:08:39.345Z,59.70
2023-02-08T06:11:07.178Z,59.78
2023-02-08T06:13:34.288Z,59.76
2023-02-08T06:16:01.427Z,59.88
2023-02-08T06:18:28.876Z,59.91
2023-02-08T06:20:55.946Z,59.39
2023-02-08T06:23:24.185Z,59.84
2023-02-08T06:25:51.281Z,59.78
2023-02-08T06:28:18.386Z,59.94
2023-02-08T06:30:45.485Z,60.11
2023-02-08T06:33:15.190Z,59.69
2023-02-08T06:35:52.310Z,59.62
2023-02-08T06:38:19.782Z,60.46
2023-02-08T06:40:48.210Z,59.73
2023-02-08T06:43:16.036Z,59.55
2023-02-08T06:45:47.965Z,60.01
2023-02-08T06:48:15.780Z,59.69
2023-02-08T06:50:43.276Z,59.72
2023-02-08T06:53:10.433Z,59.85
2023-02-08T06:55:37.462Z,59.21
2023-02-08T06:58:04.583Z,59.46
2023-02-08T07:00:31.628Z,59.01
2023-02-08T07:02:59.054Z,59.27
2023-02-08T07:05:26.110Z,59.03
2023-02-08T07:07:53.739Z,59.46
2023-02-08T07:10:20.798Z,59.38
2023-02-08T07:12:47.979Z,59.38
2023-02-08T07:15:15.430Z,59.20
2023-02-08T07:17:42.409Z,59.51
2023-02-08T07:20:11.621Z,58.68
2023-02-08T07:22:39.682Z,59.28
2023-02-08T07:25:08.475Z,59.38
2023-02-08T07:27:36.057Z,59.04
2023-02-08T07:30:03.566Z,59.12
2023-02-08T07:32:33.176Z,59.14
2023-02-08T07:35:02.213Z,58.87
2023-02-08T07:37:31.891Z,59.33
2023-02-08T07:39:59.141Z,58.79
2023-02-08T07:42:26.171Z,59.08
2023-02-08T07:45:05.772Z,58.60
2023-02-08T07:47:32.832Z,58.93
2023-02-08T07:49:59.982Z,58.45
2023-02-08T07:52:27.059Z,58.55
2023-02-08T07:54:54.133Z,58.69
2023-02-08T07:57:22.261Z,58.23
2023-02-08T07:59:49.334Z,58.65
2023-02-08T08:02:16.600Z,58.77
2023-02-08T08:04:43.648Z,58.14
2023-02-08T08:07:10.901Z,58.64
2023-02-08T08:09:38.271Z,58.33
2023-02-08T08:12:05.523Z,57.92
2023-02-08T08:14:32.564Z,58.25
2023-02-08T08:16:59.620Z,58.67
2023-02-08T08:19:26.901Z,58.54
2023-02-08T08:21:54.039Z,58.70
2023-02-08T08:24:21.099Z,58.17
2023-02-08T08:26:48.105Z,58.65
2023-02-08T08:29:15.228Z,58.32
2023-02-08T08:31:43.472Z,59.03
2023-02-08T08:34:10.978Z,58.07
2023-02-08T08:36:38.018Z,58.47
2023-02-08T08:39:05.340Z,58.40
2023-02-08T08:41:32.514Z,58.70
2023-02-08T08:43:59.514Z,57.94
2023-02-08T08:46:26.645Z,58.66
2023-02-08T08:48:53.749Z,58.23
2023-02-08T08:51:20.767Z,58.24
2023-02-08T08:53:47.772Z,58.23
2023-02-08T08:56:14.801Z,58.63
2023-02-08T08:58:43.639Z,58.06
2023-02-08T09:01:10.938Z,58.40
2023-02-08T09:03:37.970Z,58.63
2023-02-08T09:06:05.106Z,57.88
2023-02-08T09:08:32.121Z,57.88
2023-02-08T09:11:08.786Z,57.34
2023-02-08T09:13:36.310Z,57.59
2023-02-08T09:16:11.301Z,57.34
2023-02-08T09:18:38.565Z,57.68
2023-02-08T09:21:16.876Z,56.94
2023-02-08T09:23:44.603Z,56.82
2023-02-08T09:26:13.266Z,57.40
2023-02-08T09:28:40.513Z,56.82
2023-02-08T09:31:20.451Z,57.32
2023-02-08T09:33:48.384Z,56.77
2023-02-08T09:36:16.236Z,56.51
2023-02-08T09:38:44.027Z,56.83
2023-02-08T09:41:38.972Z,56.65
2023-02-08T09:44:24.096Z,57.07
2023-02-08T09:47:10.781Z,56.78
2023-02-08T09:49:43.555Z,56.91
2023-02-08T09:52:16.359Z,57.34
2023-02-08T09:54:49.113Z,57.70
2023-02-08T09:57:24.480Z,57.74
2023-02-08T09:59:57.291Z,57.47
2023-02-08T10:02:29.020Z,57.44
2023-02-08T10:05:01.598Z,57.94
2023-02-08T10:07:29.781Z,57.49
2023-02-08T10:10:04.990Z,57.56
2023-02-08T10:12:54.200Z,56.80
2023-02-08T10:15:39.970Z,57.26
2023-02-08T10:18:53.402Z,56.42
2023-02-08T10:21:30.605Z,56.13
2023-02-08T10:24:26.702Z,55.76
2023-02-08T10:27:16.247Z,55.46
2023-02-08T10:30:13.261Z,55.62
2023-02-08T10:32:45.462Z,54.52
2023-02-08T10:35:39.226Z,54.55
2023-02-08T10:38:21.277Z,53.06
2023-02-08T10:40:52.557Z,54.08
2023-02-08T10:43:37.811Z,53.71
2023-02-08T10:46:30.907Z,54.26
2023-02-08T10:49:35.452Z,54.32
2023-02-08T10:52:02.913Z,54.19
2023-02-08T10:54:30.080Z,54.70
2023-02-08T10:57:04.586Z,54.37
2023-02-08T10:59:35.812Z,54.87
2023-02-08T11:02:03.209Z,54.85
2023-02-08T11:04:30.305Z,54.96
2023-02-08T11:06:58.441Z,54.86
2023-02-08T11:09:29.246Z,54.42
2023-02-08T11:11:59.185Z,54.73
2023-02-08T11:14:46.667Z,55.17
2023-02-08T11:17:28.976Z,55.17
2023-02-08T11:19:56.710Z,54.52
2023-02-08T11:22:26.580Z,54.88
2023-02-08T11:25:07.171Z,54.23
2023-02-08T11:27:36.463Z,55.12
2023-02-08T11:30:18.405Z,54.48
2023-02-08T11:32:47.588Z,55.03
2023-02-08T11:35:24.870Z,55.10
2023-02-08T11:37:58.169Z,54.56
2023-02-08T11:40:30.172Z,54.56
2023-02-08T11:42:58.272Z,54.61
2023-02-08T11:45:31.145Z,54.17
2023-02-08T11:47:59.812Z,54.71
2023-02-08T11:50:26.913Z,54.09
2023-02-08T11:53:05.052Z,54.23
2023-02-08T11:55:34.935Z,53.96
2023-02-08T11:58:03.861Z,54.30
2023-02-08T12:00:35.784Z,54.17
2023-02-08T12:03:07.460Z,54.67
2023-02-08T12:05:49.341Z,54.40
2023-02-08T12:08:28.618Z,54.87
2023-02-08T12:10:55.581Z,54.84
2023-02-08T12:13:29.293Z,54.35
2023-02-08T12:16:12.361Z,55.06
2023-02-08T12:18:54.910Z,54.65
2023-02-08T12:21:42.627Z,54.35
2023-02-08T12:24:29.698Z,54.00
2023-02-08T12:27:18.482Z,53.65
2023-02-08T12:30:20.459Z,53.46
2023-02-08T12:33:18.275Z,53.64
2023-02-08T12:36:03.529Z,54.19
2023-02-08T12:39:18.405Z,54.20
2023-02-08T12:42:11.057Z,54.07
2023-02-08T12:44:53.068Z,54.22
2023-02-08T12:47:25.634Z,54.17
2023-02-08T12:50:15.692Z,54.14
2023-02-08T12:52:48.552Z,54.20
2023-02-08T12:55:18.788Z,54.13
2023-02-08T12:57:50.551Z,54.35
2023-02-08T13:00:25.276Z,54.83
2023-02-08T13:02:57.753Z,54.41
2023-02-08T13:05:32.437Z,54.45
2023-02-08T13:08:17.353Z,54.36
2023-02-08T13:10:50.528Z,54.69
2023-02-08T13:13:24.350Z,54.21
2023-02-08T13:16:06.336Z,54.38
2023-02-08T13:18:40.348Z,54.75
2023-02-08T13:21:25.922Z,54.64
2023-02-08T13:23:53.592Z,54.69
2023-02-08T13:26:31.818Z,55.10
2023-02-08T13:29:02.561Z,54.60
2023-02-08T13:31:36.221Z,55.17
2023-02-08T13:34:12.324Z,54.62
2023-02-08T13:36:51.907Z,54.96
2023-02-08T13:39:36.283Z,54.56
2023-02-08T13:42:06.954Z,54.80
2023-02-08T13:44:40.458Z,54.85
2023-02-08T13:47:22.359Z,54.88
2023-02-08T13:49:55.877Z,54.91
2023-02-08T13:52:47.439Z,55.17
2023-02-08T13:55:38.276Z,55.29
2023-02-08T13:58:43.740Z,55.42
2023-02-08T14:01:21.768Z,56.04
2023-02-08T14:04:07.380Z,55.64
2023-02-08T14:06:57.015Z,55.33
2023-02-08T14:09:44.315Z,55.79
2023-02-08T14:12:20.335Z,55.89
2023-02-08T14:15:25.474Z,56.55
2023-02-08T14:17:58.169Z,55.95
2023-02-08T14:20:42.608Z,56.94
2023-02-08T14:23:27.967Z,56.59
2023-02-08T14:25:57.042Z,56.11
2023-02-08T14:28:38.581Z,56.25
2023-02-08T14:31:10.300Z,56.40
2023-02-08T14:33:52.994Z,56.66
2023-02-08T14:36:41.359Z,57.44
2023-02-08T14:39:24.802Z,57.04
2023-02-08T14:42:03.977Z,56.90
2023-02-08T14:44:41.746Z,56.93
2023-02-08T14:47:27.064Z,56.46
2023-02-08T14:50:16.029Z,57.31
2023-02-08T14:52:54.346Z,56.42
2023-02-08T14:55:27.797Z,56.73
2023-02-08T14:58:00.906Z,56.19
2023-02-08T15:00:35.835Z,57.07
2023-02-08T15:03:12.157Z,57.55
2023-02-08T15:05:48.821Z,56.53
2023-02-08T15:08:21.221Z,56.56
2023-02-08T15:10:48.353Z,57.40
2023-02-08T15:13:22.206Z,57.13
2023-02-08T15:15:54.616Z,57.37
2023-02-08T15:18:39.821Z,58.67
2023-02-08T15:21:15.614Z,57.13
2023-02-08T15:23:42.740Z,57.35
2023-02-08T15:26:23.816Z,57.62
2023-02-08T15:28:50.875Z,57.37
2023-02-08T15:31:26.709Z,57.50
2023-02-08T15:33:54.565Z,57.37
2023-02-08T15:36:26.130Z,57.43
2023-02-08T15:38:55.517Z,57.84
2023-02-08T15:41:32.027Z,57.99
2023-02-08T15:44:08.331Z,57.91
2023-02-08T15:46:36.220Z,57.26
2023-02-08T15:49:03.427Z,57.36
2023-02-08T15:51:30.670Z,57.98
2023-02-08T15:53:57.986Z,58.06
2023-02-08T15:56:39.343Z,58.02
2023-02-08T15:59:19.870Z,57.85
2023-02-08T16:01:48.230Z,57.62
2023-02-08T16:04:16.111Z,57.98
2023-02-08T16:06:56.516Z,58.44
2023-02-08T16:09:28.192Z,57.45
2023-02-08T16:11:59.581Z,58.23
2023-02-08T16:14:29.508Z,57.83
2023-02-08T16:16:58.423Z,58.14
2023-02-08T16:19:27.260Z,58.62
2023-02-08T16:21:57.252Z,57.57
2023-02-08T16:24:27.773Z,57.79
2023-02-08T16:27:06.102Z,58.14
2023-02-08T16:29:42.421Z,58.40
2023-02-08T16:32:45.723Z,58.45
2023-02-08T16:35:24.717Z,58.26
2023-02-08T16:38:00.868Z,58.61
2023-02-08T16:40:59.216Z,58.65
2023-02-08T16:43:27.201Z,58.57
2023-02-08T16:46:21.537Z,59.13
2023-02-08T16:48:54.753Z,59.06
2023-02-08T16:51:31.901Z,58.63
2023-02-08T16:54:07.580Z,58.24
2023-02-08T16:56:36.213Z,58.32
2023-02-08T16:59:03.518Z,57.87
2023-02-08T17:01:30.997Z,57.76
2023-02-08T17:03:58.188Z,57.91
2023-02-08T17:06:36.869Z,58.22
2023-02-08T17:09:06.530Z,58.10
2023-02-08T17:11:33.969Z,58.75
2023-02-08T17:14:01.043Z,58.61
2023-02-08T17:16:30.936Z,58.11
2023-02-08T17:18:59.124Z,58.31
2023-02-08T17:21:27.589Z,58.21
2023-02-08T17:23:55.021Z,57.93
2023-02-08T17:26:27.587Z,58.01
2023-02-08T17:28:59.334Z,58.65
2023-02-08T17:31:29.293Z,58.54
2023-02-08T17:34:04.249Z,58.22
2023-02-08T17:36:36.705Z,58.60
2023-02-08T17:39:05.858Z,58.84
2023-02-08T17:41:35.575Z,58.72
2023-02-08T17:44:02.762Z,58.96
2023-02-08T17:46:33.104Z,58.85
2023-02-08T17:49:01.868Z,59.41
2023-02-08T17:51:29.894Z,58.41
2023-02-08T17:53:57.017Z,59.17
2023-02-08T17:56:27.570Z,59.05
2023-02-08T17:58:55.510Z,58.83
2023-02-08T18:01:25.542Z,59.23
2023-02-08T18:03:53.431Z,58.75
2023-02-08T18:06:23.976Z,58.61
2023-02-08T18:08:55.076Z,59.03
2023-02-08T18:11:23.581Z,59.45
2023-02-08T18:13:52.784Z,59.44
2023-02-08T18:16:25.178Z,59.65
2023-02-08T18:18:56.196Z,58.93
2023-02-08T18:21:27.245Z,59.30
2023-02-08T18:23:55.586Z,59.11
2023-02-08T18:26:25.082Z,59.31
2023-02-08T18:28:52.544Z,59.50
2023-02-08T18:31:21.397Z,59.63
2023-02-08T18:33:49.979Z,59.55
2023-02-08T18:36:18.407Z,59.81
2023-02-08T18:38:47.334Z,59.37
2023-02-08T18:41:21.418Z,60.14
2023-02-08T18:43:49.400Z,59.96
2023-02-08T18:46:18.954Z,59.71
2023-02-08T18:48:47.030Z,59.73
2023-02-08T18:51:19.671Z,59.93
2023-02-08T18:53:48.878Z,59.76
2023-02-08T18:56:16.032Z,59.88
2023-02-08T18:58:43.229Z,59.34
2023-02-08T19:01:16.669Z,60.11
2023-02-08T19:03:45.018Z,59.84
2023-02-08T19:06:16.451Z,59.90
2023-02-08T19:08:45.053Z,59.77
2023-02-08T19:11:21.443Z,60.25
2023-02-08T19:13:48.869Z,59.58
2023-02-08T19:16:17.622Z,59.60
2023-02-08T19:18:46.051Z,60.07
2023-02-08T19:21:15.581Z,59.79
2023-02-08T19:23:42.792Z,60.15
2023-02-08T19:26:17.125Z,60.35
2023-02-08T19:28:44.163Z,60.68
2023-02-08T19:31:14.443Z,60.72
2023-02-08T19:33:47.035Z,61.12
2023-02-08T19:36:19.379Z,62.01
2023-02-08T19:38:47.908Z,61.26
2023-02-08T19:41:17.927Z,61.86
2023-02-08T19:43:45.782Z,62.52
2023-02-08T19:46:16.188Z,62.34
2023-02-08T19:48:44.299Z,62.62
2023-02-08T19:51:11.352Z,62.53
2023-02-08T19:53:38.437Z,62.18
2023-02-08T19:56:08.412Z,62.32
2023-02-08T19:58:37.069Z,62.27
2023-02-08T20:01:08.346Z,63.16
2023-02-08T20:03:35.795Z,63.31
2023-02-08T20:06:04.114Z,62.70
2023-02-08T20:08:31.677Z,63.57
2023-02-08T20:10:58.814Z,62.78
2023-02-08T20:13:25.870Z,63.04
2023-02-08T20:15:59.829Z,63.56
2023-02-08T20:18:27.029Z,63.55
2023-02-08T20:21:01.894Z,64.20
2023-02-08T20:23:29.292Z,63.32
2023-02-08T20:26:15.395Z,63.81
2023-02-08T20:28:45.022Z,63.16
2023-02-08T20:31:15.370Z,63.21
2023-02-08T20:33:43.332Z,63.51
2023-02-08T20:36:13.550Z,63.51
2023-02-08T20:38:40.755Z,63.29
2023-02-08T20:41:10.930Z,63.29
2023-02-08T20:43:38.127Z,63.60
2023-02-08T20:46:07.079Z,64.41
2023-02-08T20:48:34.619Z,64.46
2023-02-08T20:51:22.954Z,65.23
2023-02-08T20:53:50.715Z,63.91
2023-02-08T20:56:26.208Z,64.41
2023-02-08T20:58:56.579Z,64.00
2023-02-08T21:01:25.857Z,64.37
2023-02-08T21:03:55.019Z,64.10
2023-02-08T21:06:26.602Z,63.95
2023-02-08T21:08:55.494Z,63.88
2023-02-08T21:11:26.311Z,64.30
2023-02-08T21:13:53.645Z,63.73
2023-02-08T21:16:20.744Z,63.88
2023-02-08T21:18:48.272Z,64.08
2023-02-08T21:21:15.534Z,64.47
2023-02-08T21:23:43.430Z,63.92
2023-02-08T21:26:13.528Z,64.13
2023-02-08T21:28:40.881Z,64.40
2023-02-08T21:31:12.306Z,64.23
2023-02-08T21:33:39.344Z,64.04
2023-02-08T21:36:10.557Z,64.17
2023-02-08T21:38:38.001Z,63.83
2023-02-08T21:41:20.335Z,64.11
2023-02-08T21:43:48.714Z,64.10
2023-02-08T21:46:16.847Z,64.36
2023-02-08T21:49:02.263Z,64.50
2023-02-08T21:51:48.285Z,64.58
2023-02-08T21:54:36.808Z,64.24
2023-02-08T21:57:06.307Z,64.20
2023-02-08T21:59:37.701Z,64.29
2023-02-08T22:02:06.790Z,64.58
2023-02-08T22:04:34.883Z,64.72
2023-02-08T22:07:04.730Z,64.60
2023-02-08T22:09:31.940Z,64.63
2023-02-08T22:11:59.153Z,64.62
2023-02-08T22:14:26.423Z,64.84
2023-02-08T22:16:53.461Z,65.17
2023-02-08T22:19:20.468Z,64.84
2023-02-08T22:21:47.471Z,64.52
2023-02-08T22:24:14.501Z,64.38
2023-02-08T22:26:41.551Z,64.22
2023-02-08T22:29:08.548Z,64.74
2023-02-08T22:31:35.624Z,65.35
2023-02-08T22:34:02.756Z,64.29
2023-02-08T22:36:29.853Z,64.41
2023-02-08T22:38:57.005Z,64.91
2023-02-08T22:41:24.209Z,64.43
2023-02-08T22:43:51.283Z,64.79
2023-02-08T22:46:18.341Z,64.91
2023-02-08T22:48:45.372Z,64.22
2023-02-08T22:51:18.157Z,64.63
2023-02-08T22:53:45.453Z,64.79
2023-02-08T22:56:16.260Z,64.67
2023-02-08T22:58:43.397Z,64.38
2023-02-08T23:01:11.910Z,64.13
2023-02-08T23:03:39.305Z,64.54
2023-02-08T23:06:08.622Z,64.90
2023-02-08T23:08:36.409Z,64.95
2023-02-08T23:11:05.624Z,64.79
2023-02-08T23:13:34.237Z,64.81
2023-02-08T23:16:01.474Z,64.62
2023-02-08T23:18:28.799Z,65.24
2023-02-08T23:20:56.114Z,65.02
2023-02-08T23:23:23.394Z,64.24
2023-02-08T23:25:50.419Z,64.36
2023-02-08T23:28:17.442Z,64.53
2023-02-08T23:30:44.977Z,64.46
2023-02-08T23:33:12.291Z,64.71
2023-02-08T23:35:41.398Z,64.69
2023-02-08T23:38:09.341Z,64.66
2023-02-08T23:40:36.750Z,65.00
2023-02-08T23:43:03.933Z,65.02
2023-02-08T23:45:31.452Z,64.56
2023-02-08T23:47:58.840Z,65.13
2023-02-08T23:50:26.558Z,65.17
2023-02-08T23:52:56.655Z,65.44
2023-02-08T23:55:24.186Z,64.92
2023-02-08T23:57:51.225Z,65.61
